Guanajuato International Airport
MMLO : now visible

Airfield :











YOU CAN JOIN US ON...

 
LOGIN :

Register | Disclaimer

   EN    FR    IT 

 









Legend :    VFR   Marginal VFR   IFR   Intensive IFR   Very Intensive IFR
Visi :
Ceiling :
>= 8 km
>= 3000ft
5 to 8 km
1000 to 3000 ft
1500m to 5 km
500 to 1000 ft
800 to 1500m
200 to 500 ft
< 800m
< 200 ft
Symbols :   Thunderstorms  Fog  Heavy snow  Heavy precipitations  Wind > 20 kt






- Airport Elevation : 5956 ft
- IATA code : BJX


MMLO - Guanajuato International

CURRENT METAR :
  • 240446Z 00000KT 8SM SKC 16/06 A3031

EXPIRED METARs :
  • 240344Z 29004KT 8SM SKC 19/06 A3030
  • 240242Z 29008KT 8SM SCT220 21/05 A3028 RMK SLP141 52010 965 8/008

TAF TAF MMLO
Valid from the 24 at 06:00 until the 25 at 06:00 UTC


240425Z 2406/2506 29004KT P6SM SKC
FM241800 24010KT P6SM SCT025 SCT250
BECMG 2503/2505 20005KT SKC



MET'MAP, your aeronautical weather chart ! - Copyright ORBIFLY December 2007 - Disclaimer

ORBIFLY MET'MAP TEAM :

Programming & Development : Alexandra Zaïnal
Concept & original design : Baudouin d'Aumeries
Assistance for programming : Marc-Olivier Méhu
Technical & hardware support : Manuel Goepfert

Contact : metmap@orbifly.com




SOURCES & CREDITS :

   NOAA       Earth
Advisory